Ops Hamburg — A8VS9 — position and weather

sailwx.info

Track history (hours):
 
Tides and Currents Weather Stations Pressure Air Temp Water Temp Dewpoint Dewpoint Depression Visibility Wind Speed Wind Dir Waves Ship Positions

Ops Hamburg

Last reported at 2014-Dec-19 09:05 UTC. Time now 2014-Dec-19 10:09 UTC.
Position N 41°38' E 003°10'.

Length 148 m; draft 6.9 m.

Type: Ship. MMSI: 636092040.

Date/timePositionNaut miles runAvg speedWind from/ knotsBaromVisibWave heightAir tempDewpointWater temp
2014-Dec-19 09:05N 41°38' E 003°10'4216.7
2014-Dec-19 06:33N 41°10' E 002°29'1616.4
2014-Dec-19 05:33N 40°59' E 002°12'1616.5
2014-Dec-19 04:33N 40°48' E 001°56'1716.5
2014-Dec-19 03:33N 40°37' E 001°40'1615.9
2014-Dec-19 02:33N 40°27' E 001°24'1616.2
2014-Dec-19 01:33N 40°18' E 001°06'1716.9
2014-Dec-19 00:33N 40°09' E 000°47'1717.4
2014-Dec-18 23:33N 39°59' E 000°28'1616.6
2014-Dec-18 22:33N 39°47' E 000°13'1916.7
2014-Dec-18 21:25N 39°34' W 000°04'1315.4
2014-Dec-18 20:33N 39°26' W 000°17'2 2.3
2014-Dec-18 19:33N 39°27' W 000°19'0 0.0
2014-Dec-18 18:33N 39°27' W 000°19'0 0.0
2014-Dec-18 17:33N 39°27' W 000°19'0 0.0
2014-Dec-18 16:33N 39°27' W 000°19'0 0.0
2014-Dec-18 15:27N 39°27' W 000°19'0 0.0
2014-Dec-18 14:33N 39°27' W 000°19'0 0.0
2014-Dec-18 11:18N 39°27' W 000°19'1 0.8
2014-Dec-18 10:34N 39°27' W 000°19'4 3.8
2014-Dec-18 09:34N 39°23' W 000°17'8311.6
2014-Dec-18 02:27N 38°01' W 000°07'1416.2
2014-Dec-18 01:33N 37°49' W 000°18'1515.6
2014-Dec-18 00:34N 37°36' W 000°28'1515.3
2014-Dec-17 23:33N 37°23' W 000°38'  
Track history (hours):
 
Tides and Currents Weather Stations Pressure Air Temp Water Temp Dewpoint Dewpoint Depression Visibility Wind Speed Wind Dir Waves Ship Positions

Ops Hamburg

Last reported at 2014-Dec-19 09:05 UTC. Time now 2014-Dec-19 10:09 UTC.
Position N 41°38' E 003°10'.

Length 148 m; draft 6.9 m.

Type: Ship. MMSI: 636092040.

Date/timePositionNaut miles runAvg speedWind from/ knotsBaromVisibWave heightAir tempDewpointWater temp
2014-Dec-19 09:05N 41°38' E 003°10'4216.7
2014-Dec-19 06:33N 41°10' E 002°29'1616.4
2014-Dec-19 05:33N 40°59' E 002°12'1616.5
2014-Dec-19 04:33N 40°48' E 001°56'1716.5
2014-Dec-19 03:33N 40°37' E 001°40'1615.9
2014-Dec-19 02:33N 40°27' E 001°24'1616.2
2014-Dec-19 01:33N 40°18' E 001°06'1716.9
2014-Dec-19 00:33N 40°09' E 000°47'1717.4
2014-Dec-18 23:33N 39°59' E 000°28'1616.6
2014-Dec-18 22:33N 39°47' E 000°13'1916.7
2014-Dec-18 21:25N 39°34' W 000°04'1315.4
2014-Dec-18 20:33N 39°26' W 000°17'2 2.3
2014-Dec-18 19:33N 39°27' W 000°19'0 0.0
2014-Dec-18 18:33N 39°27' W 000°19'0 0.0
2014-Dec-18 17:33N 39°27' W 000°19'0 0.0
2014-Dec-18 16:33N 39°27' W 000°19'0 0.0
2014-Dec-18 15:27N 39°27' W 000°19'0 0.0
2014-Dec-18 14:33N 39°27' W 000°19'0 0.0
2014-Dec-18 11:18N 39°27' W 000°19'1 0.8
2014-Dec-18 10:34N 39°27' W 000°19'4 3.8
2014-Dec-18 09:34N 39°23' W 000°17'8311.6
2014-Dec-18 02:27N 38°01' W 000°07'1416.2
2014-Dec-18 01:33N 37°49' W 000°18'1515.6
2014-Dec-18 00:34N 37°36' W 000°28'1515.3
2014-Dec-17 23:33N 37°23' W 000°38'  

Dump ship's entire track history